sensor_id;sensor_type;location;lat;lon;timestamp;P1;durP1;ratioP1;P2;durP2;ratioP2
21941;SDS011;11135;54.192;15.670;2022-07-29T00:02:34;4.27;;;1.80;;
21941;SDS011;11135;54.192;15.670;2022-07-29T00:08:40;4.23;;;1.80;;
21941;SDS011;11135;54.192;15.670;2022-07-29T00:14:43;5.15;;;2.00;;
21941;SDS011;11135;54.192;15.670;2022-07-29T00:20:49;3.50;;;1.83;;
21941;SDS011;11135;54.192;15.670;2022-07-29T00:26:54;4.57;;;1.70;;
21941;SDS011;11135;54.192;15.670;2022-07-29T00:32:57;4.80;;;1.75;;
21941;SDS011;11135;54.192;15.670;2022-07-29T00:39:01;3.83;;;1.70;;
21941;SDS011;11135;54.192;15.670;2022-07-29T00:45:07;4.65;;;2.05;;
21941;SDS011;11135;54.192;15.670;2022-07-29T00:51:11;5.22;;;1.83;;
21941;SDS011;11135;54.192;15.670;2022-07-29T00:57:15;3.25;;;1.80;;
21941;SDS011;11135;54.192;15.670;2022-07-29T01:03:21;5.37;;;1.70;;
21941;SDS011;11135;54.192;15.670;2022-07-29T01:09:24;5.18;;;2.10;;
21941;SDS011;11135;54.192;15.670;2022-07-29T01:15:48;3.05;;;1.95;;
21941;SDS011;11135;54.192;15.670;2022-07-29T01:21:59;2.90;;;1.70;;
21941;SDS011;11135;54.192;15.670;2022-07-29T01:28:32;3.65;;;1.80;;
21941;SDS011;11135;54.192;15.670;2022-07-29T01:34:44;5.07;;;2.28;;
21941;SDS011;11135;54.192;15.670;2022-07-29T01:40:54;5.50;;;2.03;;
21941;SDS011;11135;54.192;15.670;2022-07-29T01:47:08;3.70;;;1.80;;
21941;SDS011;11135;54.192;15.670;2022-07-29T01:53:21;4.50;;;1.60;;
21941;SDS011;11135;54.192;15.670;2022-07-29T01:59:38;4.47;;;1.92;;
21941;SDS011;11135;54.192;15.670;2022-07-29T02:05:45;5.57;;;2.10;;
21941;SDS011;11135;54.192;15.670;2022-07-29T02:11:52;4.32;;;2.08;;
21941;SDS011;11135;54.192;15.670;2022-07-29T02:17:58;3.92;;;2.00;;
21941;SDS011;11135;54.192;15.670;2022-07-29T02:24:06;4.53;;;1.92;;
21941;SDS011;11135;54.192;15.670;2022-07-29T02:30:13;3.72;;;2.05;;
21941;SDS011;11135;54.192;15.670;2022-07-29T02:36:17;4.17;;;1.90;;
21941;SDS011;11135;54.192;15.670;2022-07-29T02:42:26;5.45;;;2.10;;
21941;SDS011;11135;54.192;15.670;2022-07-29T02:48:32;4.32;;;1.88;;
21941;SDS011;11135;54.192;15.670;2022-07-29T02:54:41;3.80;;;2.13;;
21941;SDS011;11135;54.192;15.670;2022-07-29T03:00:49;5.47;;;1.90;;
21941;SDS011;11135;54.192;15.670;2022-07-29T03:06:55;3.53;;;2.10;;
21941;SDS011;11135;54.192;15.670;2022-07-29T03:13:03;3.80;;;1.90;;
21941;SDS011;11135;54.192;15.670;2022-07-29T03:19:09;4.85;;;1.88;;
21941;SDS011;11135;54.192;15.670;2022-07-29T03:25:14;6.10;;;2.25;;
21941;SDS011;11135;54.192;15.670;2022-07-29T03:31:18;4.80;;;2.00;;
21941;SDS011;11135;54.192;15.670;2022-07-29T03:37:24;4.37;;;2.00;;
21941;SDS011;11135;54.192;15.670;2022-07-29T03:43:27;3.97;;;1.60;;
21941;SDS011;11135;54.192;15.670;2022-07-29T03:49:33;5.63;;;2.40;;
21941;SDS011;11135;54.192;15.670;2022-07-29T03:55:43;5.32;;;2.38;;
21941;SDS011;11135;54.192;15.670;2022-07-29T04:01:48;4.00;;;2.08;;
21941;SDS011;11135;54.192;15.670;2022-07-29T04:13:57;4.45;;;1.92;;
21941;SDS011;11135;54.192;15.670;2022-07-29T04:20:01;4.03;;;2.00;;
21941;SDS011;11135;54.192;15.670;2022-07-29T04:26:05;7.15;;;2.40;;
21941;SDS011;11135;54.192;15.670;2022-07-29T04:32:13;7.75;;;2.05;;
21941;SDS011;11135;54.192;15.670;2022-07-29T04:38:16;5.45;;;2.22;;
21941;SDS011;11135;54.192;15.670;2022-07-29T04:44:20;4.30;;;1.93;;
21941;SDS011;11135;54.192;15.670;2022-07-29T04:50:31;4.75;;;2.05;;
21941;SDS011;11135;54.192;15.670;2022-07-29T04:56:34;4.65;;;1.80;;
21941;SDS011;11135;54.192;15.670;2022-07-29T05:02:38;5.33;;;1.93;;
21941;SDS011;11135;54.192;15.670;2022-07-29T05:08:43;4.97;;;1.77;;
21941;SDS011;11135;54.192;15.670;2022-07-29T05:14:47;4.35;;;1.80;;
21941;SDS011;11135;54.192;15.670;2022-07-29T05:20:50;4.63;;;2.03;;
21941;SDS011;11135;54.192;15.670;2022-07-29T05:26:56;7.53;;;2.30;;
21941;SDS011;11135;54.192;15.670;2022-07-29T05:32:59;5.45;;;2.25;;
21941;SDS011;11135;54.192;15.670;2022-07-29T05:39:03;4.70;;;2.10;;
21941;SDS011;11135;54.192;15.670;2022-07-29T05:45:08;4.27;;;1.80;;
21941;SDS011;11135;54.192;15.670;2022-07-29T05:51:12;4.97;;;2.00;;
21941;SDS011;11135;54.192;15.670;2022-07-29T05:57:16;4.07;;;1.93;;
21941;SDS011;11135;54.192;15.670;2022-07-29T06:03:21;4.40;;;1.85;;
21941;SDS011;11135;54.192;15.670;2022-07-29T06:09:25;10.05;;;2.08;;
21941;SDS011;11135;54.192;15.670;2022-07-29T06:15:30;5.93;;;2.20;;
21941;SDS011;11135;54.192;15.670;2022-07-29T06:21:35;5.37;;;1.90;;
21941;SDS011;11135;54.192;15.670;2022-07-29T06:27:42;4.63;;;2.03;;
21941;SDS011;11135;54.192;15.670;2022-07-29T06:33:46;4.10;;;1.73;;
21941;SDS011;11135;54.192;15.670;2022-07-29T06:39:51;5.97;;;2.00;;
21941;SDS011;11135;54.192;15.670;2022-07-29T06:46:15;3.05;;;1.73;;
21941;SDS011;11135;54.192;15.670;2022-07-29T06:52:19;4.72;;;1.83;;
21941;SDS011;11135;54.192;15.670;2022-07-29T06:58:24;3.20;;;1.77;;
21941;SDS011;11135;54.192;15.670;2022-07-29T07:04:28;2.88;;;1.50;;
21941;SDS011;11135;54.192;15.670;2022-07-29T07:10:32;3.67;;;1.63;;
21941;SDS011;11135;54.192;15.670;2022-07-29T07:16:38;4.88;;;1.80;;
21941;SDS011;11135;54.192;15.670;2022-07-29T07:22:41;2.45;;;1.35;;
21941;SDS011;11135;54.192;15.670;2022-07-29T07:28:45;2.60;;;1.70;;
21941;SDS011;11135;54.192;15.670;2022-07-29T07:34:50;2.97;;;1.50;;
21941;SDS011;11135;54.192;15.670;2022-07-29T07:40:53;2.40;;;1.60;;
21941;SDS011;11135;54.192;15.670;2022-07-29T07:46:57;3.37;;;1.40;;
21941;SDS011;11135;54.192;15.670;2022-07-29T07:53:10;2.55;;;1.42;;
21941;SDS011;11135;54.192;15.670;2022-07-29T07:59:14;2.72;;;1.20;;
21941;SDS011;11135;54.192;15.670;2022-07-29T08:05:18;2.05;;;1.40;;
21941;SDS011;11135;54.192;15.670;2022-07-29T08:11:26;4.10;;;1.50;;
21941;SDS011;11135;54.192;15.670;2022-07-29T08:17:34;2.65;;;1.50;;
21941;SDS011;11135;54.192;15.670;2022-07-29T08:23:38;3.17;;;1.60;;
21941;SDS011;11135;54.192;15.670;2022-07-29T08:29:56;3.08;;;1.48;;
21941;SDS011;11135;54.192;15.670;2022-07-29T08:36:00;2.53;;;1.60;;
21941;SDS011;11135;54.192;15.670;2022-07-29T08:42:04;3.00;;;1.50;;
21941;SDS011;11135;54.192;15.670;2022-07-29T08:48:10;1.73;;;1.30;;
21941;SDS011;11135;54.192;15.670;2022-07-29T08:54:16;3.30;;;1.38;;
21941;SDS011;11135;54.192;15.670;2022-07-29T09:00:21;1.50;;;1.05;;
21941;SDS011;11135;54.192;15.670;2022-07-29T09:06:29;1.95;;;1.10;;
21941;SDS011;11135;54.192;15.670;2022-07-29T09:12:35;3.22;;;1.30;;
21941;SDS011;11135;54.192;15.670;2022-07-29T09:18:40;3.38;;;1.60;;
21941;SDS011;11135;54.192;15.670;2022-07-29T09:24:46;4.65;;;1.40;;
21941;SDS011;11135;54.192;15.670;2022-07-29T09:30:50;2.38;;;1.30;;
21941;SDS011;11135;54.192;15.670;2022-07-29T09:36:55;2.65;;;1.40;;
21941;SDS011;11135;54.192;15.670;2022-07-29T09:43:01;3.53;;;1.35;;
21941;SDS011;11135;54.192;15.670;2022-07-29T09:49:13;3.92;;;1.25;;
21941;SDS011;11135;54.192;15.670;2022-07-29T09:55:19;3.60;;;1.23;;
21941;SDS011;11135;54.192;15.670;2022-07-29T10:01:28;5.80;;;1.63;;
21941;SDS011;11135;54.192;15.670;2022-07-29T10:07:44;1.80;;;1.25;;
21941;SDS011;11135;54.192;15.670;2022-07-29T10:13:54;4.32;;;1.50;;
21941;SDS011;11135;54.192;15.670;2022-07-29T10:19:59;4.32;;;1.48;;
21941;SDS011;11135;54.192;15.670;2022-07-29T10:26:03;6.65;;;1.70;;
21941;SDS011;11135;54.192;15.670;2022-07-29T10:32:13;5.88;;;1.63;;
21941;SDS011;11135;54.192;15.670;2022-07-29T10:38:44;4.43;;;1.48;;
21941;SDS011;11135;54.192;15.670;2022-07-29T10:44:55;6.00;;;1.52;;
21941;SDS011;11135;54.192;15.670;2022-07-29T10:51:01;3.28;;;1.40;;
21941;SDS011;11135;54.192;15.670;2022-07-29T10:57:12;1.75;;;1.35;;
21941;SDS011;11135;54.192;15.670;2022-07-29T11:23:18;3.47;;;1.42;;
21941;SDS011;11135;54.192;15.670;2022-07-29T11:29:27;4.40;;;1.67;;
21941;SDS011;11135;54.192;15.670;2022-07-29T11:35:33;3.90;;;1.30;;
21941;SDS011;11135;54.192;15.670;2022-07-29T11:41:40;5.05;;;1.52;;
21941;SDS011;11135;54.192;15.670;2022-07-29T11:47:49;3.33;;;1.40;;
21941;SDS011;11135;54.192;15.670;2022-07-29T11:53:55;3.55;;;1.55;;
21941;SDS011;11135;54.192;15.670;2022-07-29T12:00:07;1.85;;;1.30;;
21941;SDS011;11135;54.192;15.670;2022-07-29T12:06:15;3.90;;;1.60;;
21941;SDS011;11135;54.192;15.670;2022-07-29T12:12:23;5.40;;;1.55;;
21941;SDS011;11135;54.192;15.670;2022-07-29T12:18:26;2.65;;;1.38;;
21941;SDS011;11135;54.192;15.670;2022-07-29T12:24:42;2.67;;;1.35;;
21941;SDS011;11135;54.192;15.670;2022-07-29T12:30:49;3.08;;;1.50;;
21941;SDS011;11135;54.192;15.670;2022-07-29T12:36:53;4.10;;;1.25;;
21941;SDS011;11135;54.192;15.670;2022-07-29T12:43:07;2.90;;;1.50;;
21941;SDS011;11135;54.192;15.670;2022-07-29T12:49:21;2.58;;;1.27;;
21941;SDS011;11135;54.192;15.670;2022-07-29T12:55:38;3.27;;;1.20;;
21941;SDS011;11135;54.192;15.670;2022-07-29T13:01:43;3.58;;;1.38;;
21941;SDS011;11135;54.192;15.670;2022-07-29T13:07:50;2.08;;;1.23;;
21941;SDS011;11135;54.192;15.670;2022-07-29T13:13:58;3.03;;;1.30;;
21941;SDS011;11135;54.192;15.670;2022-07-29T13:20:10;3.15;;;1.33;;
21941;SDS011;11135;54.192;15.670;2022-07-29T13:26:17;1.52;;;1.02;;
21941;SDS011;11135;54.192;15.670;2022-07-29T13:32:21;2.72;;;1.27;;
21941;SDS011;11135;54.192;15.670;2022-07-29T13:38:29;3.72;;;1.33;;
21941;SDS011;11135;54.192;15.670;2022-07-29T13:44:34;2.70;;;1.38;;
21941;SDS011;11135;54.192;15.670;2022-07-29T13:50:38;2.25;;;1.20;;
21941;SDS011;11135;54.192;15.670;2022-07-29T13:56:41;2.55;;;1.27;;
21941;SDS011;11135;54.192;15.670;2022-07-29T14:02:48;2.70;;;1.17;;
21941;SDS011;11135;54.192;15.670;2022-07-29T14:08:52;3.00;;;1.50;;
21941;SDS011;11135;54.192;15.670;2022-07-29T14:14:55;3.80;;;1.60;;
21941;SDS011;11135;54.192;15.670;2022-07-29T14:21:00;3.00;;;1.30;;
21941;SDS011;11135;54.192;15.670;2022-07-29T14:27:04;4.40;;;1.50;;
21941;SDS011;11135;54.192;15.670;2022-07-29T14:39:13;4.00;;;1.35;;
21941;SDS011;11135;54.192;15.670;2022-07-29T14:45:17;3.10;;;1.42;;
21941;SDS011;11135;54.192;15.670;2022-07-29T14:51:21;4.57;;;1.58;;
21941;SDS011;11135;54.192;15.670;2022-07-29T14:57:34;5.20;;;1.67;;
21941;SDS011;11135;54.192;15.670;2022-07-29T15:03:38;4.18;;;1.98;;
21941;SDS011;11135;54.192;15.670;2022-07-29T15:09:41;7.68;;;2.33;;
21941;SDS011;11135;54.192;15.670;2022-07-29T15:15:52;5.57;;;1.98;;
21941;SDS011;11135;54.192;15.670;2022-07-29T15:22:01;4.72;;;1.70;;
21941;SDS011;11135;54.192;15.670;2022-07-29T15:28:07;3.92;;;1.90;;
21941;SDS011;11135;54.192;15.670;2022-07-29T15:34:12;5.28;;;2.65;;
21941;SDS011;11135;54.192;15.670;2022-07-29T15:40:15;9.70;;;3.67;;
21941;SDS011;11135;54.192;15.670;2022-07-29T15:46:19;4.70;;;2.85;;
21941;SDS011;11135;54.192;15.670;2022-07-29T15:52:42;3.90;;;2.05;;
21941;SDS011;11135;54.192;15.670;2022-07-29T15:58:46;4.05;;;1.83;;
21941;SDS011;11135;54.192;15.670;2022-07-29T16:04:49;3.78;;;1.88;;
21941;SDS011;11135;54.192;15.670;2022-07-29T16:10:54;6.43;;;1.90;;
21941;SDS011;11135;54.192;15.670;2022-07-29T16:16:58;4.93;;;1.70;;
21941;SDS011;11135;54.192;15.670;2022-07-29T16:23:04;3.55;;;1.45;;
21941;SDS011;11135;54.192;15.670;2022-07-29T16:29:11;5.57;;;1.40;;
21941;SDS011;11135;54.192;15.670;2022-07-29T16:35:16;3.17;;;1.20;;
21941;SDS011;11135;54.192;15.670;2022-07-29T16:41:20;4.55;;;1.58;;
21941;SDS011;11135;54.192;15.670;2022-07-29T16:47:25;2.70;;;1.10;;
21941;SDS011;11135;54.192;15.670;2022-07-29T16:53:28;2.33;;;1.10;;
21941;SDS011;11135;54.192;15.670;2022-07-29T16:59:32;4.15;;;1.05;;
21941;SDS011;11135;54.192;15.670;2022-07-29T17:05:45;3.88;;;1.00;;
21941;SDS011;11135;54.192;15.670;2022-07-29T17:11:54;3.33;;;1.38;;
21941;SDS011;11135;54.192;15.670;2022-07-29T17:18:00;3.35;;;1.45;;
21941;SDS011;11135;54.192;15.670;2022-07-29T17:24:14;3.70;;;1.20;;
21941;SDS011;11135;54.192;15.670;2022-07-29T17:30:18;5.35;;;1.20;;
21941;SDS011;11135;54.192;15.670;2022-07-29T17:36:22;2.85;;;1.10;;
21941;SDS011;11135;54.192;15.670;2022-07-29T17:42:27;6.35;;;1.40;;
21941;SDS011;11135;54.192;15.670;2022-07-29T17:48:30;3.88;;;1.10;;
21941;SDS011;11135;54.192;15.670;2022-07-29T17:54:34;3.65;;;1.48;;
21941;SDS011;11135;54.192;15.670;2022-07-29T18:00:39;14.40;;;1.67;;
21941;SDS011;11135;54.192;15.670;2022-07-29T18:06:43;2.80;;;1.20;;
21941;SDS011;11135;54.192;15.670;2022-07-29T18:12:46;5.30;;;1.40;;
21941;SDS011;11135;54.192;15.670;2022-07-29T18:18:51;4.63;;;1.52;;
21941;SDS011;11135;54.192;15.670;2022-07-29T18:24:55;3.85;;;1.63;;
21941;SDS011;11135;54.192;15.670;2022-07-29T18:30:59;5.50;;;1.55;;
21941;SDS011;11135;54.192;15.670;2022-07-29T18:37:04;4.78;;;1.77;;
21941;SDS011;11135;54.192;15.670;2022-07-29T18:43:08;6.07;;;2.33;;
21941;SDS011;11135;54.192;15.670;2022-07-29T18:49:13;3.65;;;1.80;;
21941;SDS011;11135;54.192;15.670;2022-07-29T18:55:18;5.97;;;1.85;;
21941;SDS011;11135;54.192;15.670;2022-07-29T19:01:22;2.90;;;1.50;;
21941;SDS011;11135;54.192;15.670;2022-07-29T19:07:32;4.15;;;1.60;;
21941;SDS011;11135;54.192;15.670;2022-07-29T19:13:38;5.28;;;1.60;;
21941;SDS011;11135;54.192;15.670;2022-07-29T19:19:42;5.60;;;1.92;;
21941;SDS011;11135;54.192;15.670;2022-07-29T19:25:45;4.38;;;1.80;;
21941;SDS011;11135;54.192;15.670;2022-07-29T19:31:56;5.43;;;1.98;;
21941;SDS011;11135;54.192;15.670;2022-07-29T19:38:01;5.00;;;2.30;;
21941;SDS011;11135;54.192;15.670;2022-07-29T19:44:08;5.05;;;2.33;;
21941;SDS011;11135;54.192;15.670;2022-07-29T19:50:13;5.32;;;1.83;;
21941;SDS011;11135;54.192;15.670;2022-07-29T19:56:18;5.53;;;2.05;;
21941;SDS011;11135;54.192;15.670;2022-07-29T20:08:26;6.07;;;2.10;;
21941;SDS011;11135;54.192;15.670;2022-07-29T20:14:30;3.25;;;1.88;;
21941;SDS011;11135;54.192;15.670;2022-07-29T20:20:35;6.13;;;2.00;;
21941;SDS011;11135;54.192;15.670;2022-07-29T20:26:40;6.28;;;1.83;;
21941;SDS011;11135;54.192;15.670;2022-07-29T20:32:45;4.28;;;1.80;;
21941;SDS011;11135;54.192;15.670;2022-07-29T20:38:51;5.20;;;1.92;;
21941;SDS011;11135;54.192;15.670;2022-07-29T20:45:03;4.18;;;1.65;;
21941;SDS011;11135;54.192;15.670;2022-07-29T20:51:11;3.95;;;1.90;;
21941;SDS011;11135;54.192;15.670;2022-07-29T20:57:17;4.50;;;1.90;;
21941;SDS011;11135;54.192;15.670;2022-07-29T21:03:42;4.72;;;1.92;;
21941;SDS011;11135;54.192;15.670;2022-07-29T21:09:45;3.35;;;1.90;;
21941;SDS011;11135;54.192;15.670;2022-07-29T21:15:49;3.22;;;1.67;;
21941;SDS011;11135;54.192;15.670;2022-07-29T21:21:59;2.85;;;1.77;;
21941;SDS011;11135;54.192;15.670;2022-07-29T21:28:02;3.30;;;1.83;;
21941;SDS011;11135;54.192;15.670;2022-07-29T21:34:23;3.40;;;1.65;;
21941;SDS011;11135;54.192;15.670;2022-07-29T21:40:30;3.13;;;1.70;;
21941;SDS011;11135;54.192;15.670;2022-07-29T21:46:33;4.15;;;1.73;;
21941;SDS011;11135;54.192;15.670;2022-07-29T21:52:37;6.60;;;1.83;;
21941;SDS011;11135;54.192;15.670;2022-07-29T21:58:42;4.35;;;1.75;;
21941;SDS011;11135;54.192;15.670;2022-07-29T22:04:46;3.08;;;1.52;;
21941;SDS011;11135;54.192;15.670;2022-07-29T22:10:49;2.50;;;1.38;;
21941;SDS011;11135;54.192;15.670;2022-07-29T22:16:54;3.47;;;1.52;;
21941;SDS011;11135;54.192;15.670;2022-07-29T22:22:59;3.72;;;1.60;;
21941;SDS011;11135;54.192;15.670;2022-07-29T22:29:02;2.97;;;1.50;;
21941;SDS011;11135;54.192;15.670;2022-07-29T22:35:07;3.35;;;1.58;;
21941;SDS011;11135;54.192;15.670;2022-07-29T22:41:11;4.38;;;1.83;;
21941;SDS011;11135;54.192;15.670;2022-07-29T22:47:16;3.15;;;1.58;;
21941;SDS011;11135;54.192;15.670;2022-07-29T22:53:41;3.13;;;1.60;;
21941;SDS011;11135;54.192;15.670;2022-07-29T22:59:44;2.95;;;1.48;;
21941;SDS011;11135;54.192;15.670;2022-07-29T23:05:48;2.28;;;1.30;;
21941;SDS011;11135;54.192;15.670;2022-07-29T23:11:54;1.75;;;1.27;;
21941;SDS011;11135;54.192;15.670;2022-07-29T23:17:58;3.63;;;1.35;;
21941;SDS011;11135;54.192;15.670;2022-07-29T23:24:01;2.05;;;1.20;;
21941;SDS011;11135;54.192;15.670;2022-07-29T23:30:07;2.55;;;1.55;;
21941;SDS011;11135;54.192;15.670;2022-07-29T23:36:11;3.53;;;1.45;;
21941;SDS011;11135;54.192;15.670;2022-07-29T23:42:15;2.83;;;1.52;;
21941;SDS011;11135;54.192;15.670;2022-07-29T23:48:20;3.03;;;1.38;;
21941;SDS011;11135;54.192;15.670;2022-07-29T23:54:23;1.98;;;1.45;;
